Aérodrome :
LOGIN :

S'inscrire | Disclaimer

   EN    FR    IT 

 










Légende :    VFR   VFR Marginal   IFR   IFR Intensif   IFR Très Intensif
Visi : 
Plafond : 
>= 8 km
>= 3000ft
5 à 8 km
1000 à 3000 ft
1500m à 5 km
500 à 1000 ft
800 à 1500m
200 à 500 ft
< 800m
< 200 ft
Symboles :   Orages  Brouillard  Fortes neiges  Fortes précipitations  Vent > 20 kt
SIGMETs :   Divers  Orages  Givrage  Turbulence  Onde Orograph.  Cendres Volcan.






- Altitude de l'aérodrome : 266 ft
- Code IATA : NCL


EGNT - Newcastle

DERNIER METAR :
  • 242050Z 27020KT 9999 FEW018 03/01 Q0995

METARs EXPIRÉS :
  • 242020Z 27020KT 9999 FEW015 03/01 Q0994
  • 241950Z 27021KT 9999 FEW015 03/02 Q0994
  • 241920Z 27021KT 9999 SCT014 03/02 Q0994
  • 241850Z 27019G29KT 9999 FEW012 04/03 Q0993
  • 241820Z 27023KT 9999 VCSH FEW012 04/03 Q0992

TAF TAF EGNT
Valide du 24 à 18h jusqu'au 25 à 18h UTC


241656Z 2418/2518 25018KT 9999 SCT025
TEMPO 2418/2502 27022G32KT
PROB30
TEMPO 2418/2424 27025G43KT
PROB30
TEMPO 2503/2518 6000 SHRA BKN010
ATIS : +44 191 214 3400



MET'MAP, la Météo Aéronautique d'un coup d'oeil ! - Copyright ORBIFLY Décembre 2007 - Disclaimer

ORBIFLY MET'MAP TEAM :

Programmation & Développement : Alexandra Zaïnal
Sur une idée originale de : Baudouin d'Aumeries
Assistance à la programmation : Marc-Olivier Méhu
Soutien technique & logistique : Manuel Goepfert

Contact : metmap@orbifly.com




SOURCES & CREDITS :

   NOAA